Terminal Aerodrome Forecast
Issued by NWS

Home | Current Version | Previous Version | Text Only | Print | Product List | Glossary On
Versions: 1 2 3 4 5 6 7 8 9 10 11 12
000
FTUS46 KHNX 072320
TAFBFL
TAF
KBFL 072320Z 0800/0824 VRB04KT 6SM HZ SKC
     FM080600 VRB04KT 4SM HZ SKC
      TEMPO 0813/0817 2SM HZ
     FM081900 VRB04KT 6SM HZ SKC=

USA.gov is the U.S. government's official web portal to all federal, state and local government web resources and services.